sensor_id;sensor_type;location;lat;lon;timestamp;P1;durP1;ratioP1;P2;durP2;ratioP2
7719;SDS011;3902;49.474;8.616;2023-02-25T00:01:23;3.03;;;2.73;;
7719;SDS011;3902;49.474;8.616;2023-02-25T00:04:00;2.90;;;2.53;;
7719;SDS011;3902;49.474;8.616;2023-02-25T00:06:26;3.23;;;2.50;;
7719;SDS011;3902;49.474;8.616;2023-02-25T00:08:52;3.47;;;2.60;;
7719;SDS011;3902;49.474;8.616;2023-02-25T00:11:18;4.10;;;2.53;;
7719;SDS011;3902;49.474;8.616;2023-02-25T00:13:44;2.97;;;2.30;;
7719;SDS011;3902;49.474;8.616;2023-02-25T00:16:10;3.40;;;2.70;;
7719;SDS011;3902;49.474;8.616;2023-02-25T00:18:37;2.97;;;2.47;;
7719;SDS011;3902;49.474;8.616;2023-02-25T00:21:05;3.23;;;2.30;;
7719;SDS011;3902;49.474;8.616;2023-02-25T00:23:33;3.40;;;2.57;;
7719;SDS011;3902;49.474;8.616;2023-02-25T00:26:00;3.60;;;2.67;;
7719;SDS011;3902;49.474;8.616;2023-02-25T00:28:27;4.13;;;2.53;;
7719;SDS011;3902;49.474;8.616;2023-02-25T00:30:53;4.37;;;2.60;;
7719;SDS011;3902;49.474;8.616;2023-02-25T00:33:18;3.43;;;2.83;;
7719;SDS011;3902;49.474;8.616;2023-02-25T00:35:44;3.73;;;2.73;;
7719;SDS011;3902;49.474;8.616;2023-02-25T00:38:10;4.47;;;3.07;;
7719;SDS011;3902;49.474;8.616;2023-02-25T00:40:38;2.40;;;2.20;;
7719;SDS011;3902;49.474;8.616;2023-02-25T00:43:04;5.23;;;2.67;;
7719;SDS011;3902;49.474;8.616;2023-02-25T00:45:31;3.90;;;3.00;;
7719;SDS011;3902;49.474;8.616;2023-02-25T00:47:57;2.90;;;2.70;;
7719;SDS011;3902;49.474;8.616;2023-02-25T00:50:23;3.53;;;2.60;;
7719;SDS011;3902;49.474;8.616;2023-02-25T00:52:48;2.87;;;2.57;;
7719;SDS011;3902;49.474;8.616;2023-02-25T00:55:14;2.97;;;2.23;;
7719;SDS011;3902;49.474;8.616;2023-02-25T00:57:40;3.03;;;2.20;;
7719;SDS011;3902;49.474;8.616;2023-02-25T01:00:09;6.00;;;2.60;;
7719;SDS011;3902;49.474;8.616;2023-02-25T01:02:40;3.40;;;2.10;;
7719;SDS011;3902;49.474;8.616;2023-02-25T01:05:09;4.20;;;2.63;;
7719;SDS011;3902;49.474;8.616;2023-02-25T01:07:36;4.17;;;2.47;;
7719;SDS011;3902;49.474;8.616;2023-02-25T01:10:02;2.57;;;2.00;;
7719;SDS011;3902;49.474;8.616;2023-02-25T01:12:28;3.13;;;2.10;;
7719;SDS011;3902;49.474;8.616;2023-02-25T01:14:54;5.50;;;2.70;;
7719;SDS011;3902;49.474;8.616;2023-02-25T01:17:20;2.50;;;2.30;;
7719;SDS011;3902;49.474;8.616;2023-02-25T01:19:46;3.80;;;2.53;;
7719;SDS011;3902;49.474;8.616;2023-02-25T01:22:12;2.70;;;2.40;;
7719;SDS011;3902;49.474;8.616;2023-02-25T01:24:37;4.60;;;2.97;;
7719;SDS011;3902;49.474;8.616;2023-02-25T01:27:03;3.13;;;2.40;;
7719;SDS011;3902;49.474;8.616;2023-02-25T01:29:37;4.30;;;3.10;;
7719;SDS011;3902;49.474;8.616;2023-02-25T01:32:05;3.10;;;2.80;;
7719;SDS011;3902;49.474;8.616;2023-02-25T01:34:33;3.73;;;2.90;;
7719;SDS011;3902;49.474;8.616;2023-02-25T01:36:59;3.30;;;3.00;;
7719;SDS011;3902;49.474;8.616;2023-02-25T01:39:26;7.10;;;3.53;;
7719;SDS011;3902;49.474;8.616;2023-02-25T01:41:53;4.13;;;3.30;;
7719;SDS011;3902;49.474;8.616;2023-02-25T01:44:30;5.10;;;3.53;;
7719;SDS011;3902;49.474;8.616;2023-02-25T01:46:57;7.50;;;3.80;;
7719;SDS011;3902;49.474;8.616;2023-02-25T01:54:39;5.60;;;3.83;;
7719;SDS011;3902;49.474;8.616;2023-02-25T01:57:07;6.13;;;3.53;;
7719;SDS011;3902;49.474;8.616;2023-02-25T01:59:34;3.80;;;3.40;;
7719;SDS011;3902;49.474;8.616;2023-02-25T02:02:01;5.70;;;3.87;;
7719;SDS011;3902;49.474;8.616;2023-02-25T02:04:26;4.17;;;3.50;;
7719;SDS011;3902;49.474;8.616;2023-02-25T02:06:54;6.80;;;4.17;;
7719;SDS011;3902;49.474;8.616;2023-02-25T02:09:22;5.23;;;3.90;;
7719;SDS011;3902;49.474;8.616;2023-02-25T02:11:50;4.50;;;3.67;;
7719;SDS011;3902;49.474;8.616;2023-02-25T02:14:20;6.47;;;3.93;;
7719;SDS011;3902;49.474;8.616;2023-02-25T02:20:01;6.13;;;4.20;;
7719;SDS011;3902;49.474;8.616;2023-02-25T02:26:02;5.77;;;4.57;;
7719;SDS011;3902;49.474;8.616;2023-02-25T02:31:15;5.47;;;3.67;;
7719;SDS011;3902;49.474;8.616;2023-02-25T02:33:46;6.07;;;3.90;;
7719;SDS011;3902;49.474;8.616;2023-02-25T02:39:02;7.03;;;3.13;;
7719;SDS011;3902;49.474;8.616;2023-02-25T02:41:45;6.60;;;4.00;;
7719;SDS011;3902;49.474;8.616;2023-02-25T02:46:51;6.10;;;3.60;;
7719;SDS011;3902;49.474;8.616;2023-02-25T02:49:19;5.07;;;3.30;;
7719;SDS011;3902;49.474;8.616;2023-02-25T02:51:54;5.50;;;3.70;;
7719;SDS011;3902;49.474;8.616;2023-02-25T02:54:24;4.77;;;3.60;;
7719;SDS011;3902;49.474;8.616;2023-02-25T02:56:55;5.70;;;3.80;;
7719;SDS011;3902;49.474;8.616;2023-02-25T02:59:23;4.80;;;3.40;;
7719;SDS011;3902;49.474;8.616;2023-02-25T03:01:53;6.00;;;3.77;;
7719;SDS011;3902;49.474;8.616;2023-02-25T03:04:34;5.97;;;4.07;;
7719;SDS011;3902;49.474;8.616;2023-02-25T03:07:06;5.30;;;3.30;;
7719;SDS011;3902;49.474;8.616;2023-02-25T03:09:35;6.27;;;3.43;;
7719;SDS011;3902;49.474;8.616;2023-02-25T03:12:05;6.87;;;3.57;;
7719;SDS011;3902;49.474;8.616;2023-02-25T03:14:30;5.40;;;2.87;;
7719;SDS011;3902;49.474;8.616;2023-02-25T03:17:06;4.23;;;2.77;;
7719;SDS011;3902;49.474;8.616;2023-02-25T03:19:45;5.03;;;3.10;;
7719;SDS011;3902;49.474;8.616;2023-02-25T03:22:22;7.27;;;2.90;;
7719;SDS011;3902;49.474;8.616;2023-02-25T03:27:29;4.70;;;2.70;;
7719;SDS011;3902;49.474;8.616;2023-02-25T03:30:04;3.93;;;2.30;;
7719;SDS011;3902;49.474;8.616;2023-02-25T03:32:31;3.73;;;2.60;;
7719;SDS011;3902;49.474;8.616;2023-02-25T03:34:59;4.40;;;2.23;;
7719;SDS011;3902;49.474;8.616;2023-02-25T03:37:27;4.10;;;2.50;;
7719;SDS011;3902;49.474;8.616;2023-02-25T03:39:55;3.53;;;2.30;;
7719;SDS011;3902;49.474;8.616;2023-02-25T03:42:29;3.27;;;2.10;;
7719;SDS011;3902;49.474;8.616;2023-02-25T03:44:58;4.50;;;2.73;;
7719;SDS011;3902;49.474;8.616;2023-02-25T03:47:27;4.50;;;2.07;;
7719;SDS011;3902;49.474;8.616;2023-02-25T03:49:59;6.43;;;2.20;;
7719;SDS011;3902;49.474;8.616;2023-02-25T03:52:29;4.87;;;2.43;;
7719;SDS011;3902;49.474;8.616;2023-02-25T03:54:56;5.67;;;2.40;;
7719;SDS011;3902;49.474;8.616;2023-02-25T03:57:23;5.87;;;2.50;;
7719;SDS011;3902;49.474;8.616;2023-02-25T03:59:53;7.73;;;2.73;;
7719;SDS011;3902;49.474;8.616;2023-02-25T04:02:22;7.10;;;2.57;;
7719;SDS011;3902;49.474;8.616;2023-02-25T04:04:54;5.80;;;2.70;;
7719;SDS011;3902;49.474;8.616;2023-02-25T04:07:21;5.90;;;2.50;;
7719;SDS011;3902;49.474;8.616;2023-02-25T04:09:46;2.80;;;1.80;;
7719;SDS011;3902;49.474;8.616;2023-02-25T04:12:12;4.10;;;2.30;;
7719;SDS011;3902;49.474;8.616;2023-02-25T04:14:37;3.67;;;2.47;;
7719;SDS011;3902;49.474;8.616;2023-02-25T04:17:03;4.00;;;1.87;;
7719;SDS011;3902;49.474;8.616;2023-02-25T04:19:30;4.50;;;2.23;;
7719;SDS011;3902;49.474;8.616;2023-02-25T04:21:55;5.73;;;2.10;;
7719;SDS011;3902;49.474;8.616;2023-02-25T04:24:21;3.90;;;2.20;;
7719;SDS011;3902;49.474;8.616;2023-02-25T04:26:46;4.10;;;1.90;;
7719;SDS011;3902;49.474;8.616;2023-02-25T04:29:12;2.77;;;2.00;;
7719;SDS011;3902;49.474;8.616;2023-02-25T04:31:37;4.40;;;1.90;;
7719;SDS011;3902;49.474;8.616;2023-02-25T04:34:03;4.50;;;2.00;;
7719;SDS011;3902;49.474;8.616;2023-02-25T04:36:30;6.80;;;2.77;;
7719;SDS011;3902;49.474;8.616;2023-02-25T04:38:58;7.57;;;2.80;;
7719;SDS011;3902;49.474;8.616;2023-02-25T04:41:27;7.37;;;2.40;;
7719;SDS011;3902;49.474;8.616;2023-02-25T04:43:55;6.90;;;2.70;;
7719;SDS011;3902;49.474;8.616;2023-02-25T04:46:21;4.70;;;2.57;;
7719;SDS011;3902;49.474;8.616;2023-02-25T04:48:46;4.33;;;2.37;;
7719;SDS011;3902;49.474;8.616;2023-02-25T04:51:12;4.60;;;2.37;;
7719;SDS011;3902;49.474;8.616;2023-02-25T04:53:37;6.53;;;2.30;;
7719;SDS011;3902;49.474;8.616;2023-02-25T04:56:03;6.13;;;2.73;;
7719;SDS011;3902;49.474;8.616;2023-02-25T04:58:31;4.63;;;2.30;;
7719;SDS011;3902;49.474;8.616;2023-02-25T05:00:58;4.63;;;2.50;;
7719;SDS011;3902;49.474;8.616;2023-02-25T05:03:25;6.70;;;2.47;;
7719;SDS011;3902;49.474;8.616;2023-02-25T05:05:50;4.43;;;2.60;;
7719;SDS011;3902;49.474;8.616;2023-02-25T05:08:16;6.17;;;2.90;;
7719;SDS011;3902;49.474;8.616;2023-02-25T05:10:41;3.83;;;2.00;;
7719;SDS011;3902;49.474;8.616;2023-02-25T05:13:07;4.90;;;1.93;;
7719;SDS011;3902;49.474;8.616;2023-02-25T05:15:33;6.10;;;2.30;;
7719;SDS011;3902;49.474;8.616;2023-02-25T05:17:58;3.27;;;1.97;;
7719;SDS011;3902;49.474;8.616;2023-02-25T05:20:24;7.00;;;1.93;;
7719;SDS011;3902;49.474;8.616;2023-02-25T05:22:49;3.60;;;2.30;;
7719;SDS011;3902;49.474;8.616;2023-02-25T05:25:15;7.17;;;2.80;;
7719;SDS011;3902;49.474;8.616;2023-02-25T05:27:40;8.13;;;2.80;;
7719;SDS011;3902;49.474;8.616;2023-02-25T05:30:06;6.57;;;2.73;;
7719;SDS011;3902;49.474;8.616;2023-02-25T05:32:32;8.03;;;2.50;;
7719;SDS011;3902;49.474;8.616;2023-02-25T05:34:58;5.83;;;2.90;;
7719;SDS011;3902;49.474;8.616;2023-02-25T05:37:24;7.80;;;2.90;;
7719;SDS011;3902;49.474;8.616;2023-02-25T05:39:50;10.47;;;3.87;;
7719;SDS011;3902;49.474;8.616;2023-02-25T05:42:16;6.97;;;3.53;;
7719;SDS011;3902;49.474;8.616;2023-02-25T05:44:41;7.83;;;3.40;;
7719;SDS011;3902;49.474;8.616;2023-02-25T05:47:07;5.03;;;2.70;;
7719;SDS011;3902;49.474;8.616;2023-02-25T05:49:32;6.07;;;2.67;;
7719;SDS011;3902;49.474;8.616;2023-02-25T05:51:58;7.40;;;2.87;;
7719;SDS011;3902;49.474;8.616;2023-02-25T05:54:23;6.90;;;2.73;;
7719;SDS011;3902;49.474;8.616;2023-02-25T05:56:50;5.10;;;2.60;;
7719;SDS011;3902;49.474;8.616;2023-02-25T05:59:16;4.30;;;2.90;;
7719;SDS011;3902;49.474;8.616;2023-02-25T06:01:42;9.30;;;2.80;;
7719;SDS011;3902;49.474;8.616;2023-02-25T06:04:08;5.23;;;2.70;;
7719;SDS011;3902;49.474;8.616;2023-02-25T06:06:33;4.70;;;2.43;;
7719;SDS011;3902;49.474;8.616;2023-02-25T06:08:59;5.63;;;2.60;;
7719;SDS011;3902;49.474;8.616;2023-02-25T06:11:25;4.80;;;2.70;;
7719;SDS011;3902;49.474;8.616;2023-02-25T06:13:52;7.00;;;2.83;;
7719;SDS011;3902;49.474;8.616;2023-02-25T06:16:19;5.90;;;2.77;;
7719;SDS011;3902;49.474;8.616;2023-02-25T06:18:46;4.83;;;2.83;;
7719;SDS011;3902;49.474;8.616;2023-02-25T06:21:12;10.77;;;3.70;;
7719;SDS011;3902;49.474;8.616;2023-02-25T06:23:39;7.80;;;3.23;;
7719;SDS011;3902;49.474;8.616;2023-02-25T06:26:06;7.37;;;2.90;;
7719;SDS011;3902;49.474;8.616;2023-02-25T06:28:34;6.93;;;2.60;;
7719;SDS011;3902;49.474;8.616;2023-02-25T06:31:00;6.60;;;2.80;;
7719;SDS011;3902;49.474;8.616;2023-02-25T06:33:28;8.57;;;2.90;;
7719;SDS011;3902;49.474;8.616;2023-02-25T06:35:55;4.90;;;3.20;;
7719;SDS011;3902;49.474;8.616;2023-02-25T06:38:21;6.47;;;2.90;;
7719;SDS011;3902;49.474;8.616;2023-02-25T06:40:47;5.80;;;2.93;;
7719;SDS011;3902;49.474;8.616;2023-02-25T06:43:13;6.10;;;2.80;;
7719;SDS011;3902;49.474;8.616;2023-02-25T06:45:39;9.30;;;3.67;;
7719;SDS011;3902;49.474;8.616;2023-02-25T06:48:05;6.63;;;3.00;;
7719;SDS011;3902;49.474;8.616;2023-02-25T06:50:30;6.67;;;3.37;;
7719;SDS011;3902;49.474;8.616;2023-02-25T06:52:57;7.67;;;3.43;;
7719;SDS011;3902;49.474;8.616;2023-02-25T06:55:23;6.03;;;3.03;;
7719;SDS011;3902;49.474;8.616;2023-02-25T06:57:48;8.70;;;3.27;;
7719;SDS011;3902;49.474;8.616;2023-02-25T07:00:14;5.73;;;2.90;;
7719;SDS011;3902;49.474;8.616;2023-02-25T07:02:40;12.53;;;3.50;;
7719;SDS011;3902;49.474;8.616;2023-02-25T07:05:06;7.40;;;3.03;;
7719;SDS011;3902;49.474;8.616;2023-02-25T07:07:31;5.87;;;2.67;;
7719;SDS011;3902;49.474;8.616;2023-02-25T07:09:57;8.70;;;2.90;;
7719;SDS011;3902;49.474;8.616;2023-02-25T07:12:22;6.90;;;3.17;;
7719;SDS011;3902;49.474;8.616;2023-02-25T07:14:48;9.10;;;3.50;;
7719;SDS011;3902;49.474;8.616;2023-02-25T07:17:14;5.93;;;2.83;;
7719;SDS011;3902;49.474;8.616;2023-02-25T07:19:39;6.80;;;2.60;;
7719;SDS011;3902;49.474;8.616;2023-02-25T07:22:05;8.37;;;3.10;;
7719;SDS011;3902;49.474;8.616;2023-02-25T07:24:32;5.60;;;2.63;;
7719;SDS011;3902;49.474;8.616;2023-02-25T07:26:58;6.50;;;3.20;;
7719;SDS011;3902;49.474;8.616;2023-02-25T07:29:23;8.50;;;2.83;;
7719;SDS011;3902;49.474;8.616;2023-02-25T07:31:49;6.13;;;2.20;;
7719;SDS011;3902;49.474;8.616;2023-02-25T07:34:14;4.57;;;2.20;;
7719;SDS011;3902;49.474;8.616;2023-02-25T07:36:40;4.60;;;2.67;;
7719;SDS011;3902;49.474;8.616;2023-02-25T07:39:06;7.97;;;3.00;;
7719;SDS011;3902;49.474;8.616;2023-02-25T07:41:34;6.40;;;3.30;;
7719;SDS011;3902;49.474;8.616;2023-02-25T07:44:00;5.23;;;2.87;;
7719;SDS011;3902;49.474;8.616;2023-02-25T07:46:26;7.10;;;2.70;;
7719;SDS011;3902;49.474;8.616;2023-02-25T07:48:52;4.07;;;2.80;;
7719;SDS011;3902;49.474;8.616;2023-02-25T07:51:19;10.23;;;3.17;;
7719;SDS011;3902;49.474;8.616;2023-02-25T07:53:46;7.17;;;2.93;;
7719;SDS011;3902;49.474;8.616;2023-02-25T07:56:13;9.67;;;4.10;;
7719;SDS011;3902;49.474;8.616;2023-02-25T07:58:39;10.13;;;2.83;;
7719;SDS011;3902;49.474;8.616;2023-02-25T08:01:08;7.03;;;2.90;;
7719;SDS011;3902;49.474;8.616;2023-02-25T08:03:43;8.87;;;3.80;;
7719;SDS011;3902;49.474;8.616;2023-02-25T08:06:09;10.90;;;4.00;;
7719;SDS011;3902;49.474;8.616;2023-02-25T08:08:35;9.33;;;3.30;;
7719;SDS011;3902;49.474;8.616;2023-02-25T08:11:07;6.87;;;3.30;;
7719;SDS011;3902;49.474;8.616;2023-02-25T08:13:34;8.13;;;3.80;;
7719;SDS011;3902;49.474;8.616;2023-02-25T08:16:11;9.87;;;3.90;;
7719;SDS011;3902;49.474;8.616;2023-02-25T08:18:38;10.17;;;3.00;;
7719;SDS011;3902;49.474;8.616;2023-02-25T08:21:06;8.30;;;3.00;;
7719;SDS011;3902;49.474;8.616;2023-02-25T08:23:36;8.80;;;3.50;;
7719;SDS011;3902;49.474;8.616;2023-02-25T08:26:03;6.97;;;3.33;;
7719;SDS011;3902;49.474;8.616;2023-02-25T08:28:29;5.30;;;2.67;;
7719;SDS011;3902;49.474;8.616;2023-02-25T08:30:55;5.73;;;2.53;;
7719;SDS011;3902;49.474;8.616;2023-02-25T08:33:21;6.10;;;2.80;;
7719;SDS011;3902;49.474;8.616;2023-02-25T08:35:47;5.43;;;3.10;;
7719;SDS011;3902;49.474;8.616;2023-02-25T08:38:14;5.53;;;2.70;;
7719;SDS011;3902;49.474;8.616;2023-02-25T08:40:39;7.70;;;2.70;;
7719;SDS011;3902;49.474;8.616;2023-02-25T08:43:05;7.10;;;2.93;;
7719;SDS011;3902;49.474;8.616;2023-02-25T08:45:31;7.87;;;3.03;;
7719;SDS011;3902;49.474;8.616;2023-02-25T08:47:56;6.60;;;2.60;;
7719;SDS011;3902;49.474;8.616;2023-02-25T08:50:22;5.00;;;2.50;;
7719;SDS011;3902;49.474;8.616;2023-02-25T08:52:48;4.90;;;2.47;;
7719;SDS011;3902;49.474;8.616;2023-02-25T08:55:14;5.50;;;2.60;;
7719;SDS011;3902;49.474;8.616;2023-02-25T08:57:42;5.47;;;2.30;;
7719;SDS011;3902;49.474;8.616;2023-02-25T09:00:08;8.93;;;2.70;;
7719;SDS011;3902;49.474;8.616;2023-02-25T09:02:36;3.33;;;2.27;;
7719;SDS011;3902;49.474;8.616;2023-02-25T09:05:02;4.37;;;2.40;;
7719;SDS011;3902;49.474;8.616;2023-02-25T09:07:28;8.10;;;2.80;;
7719;SDS011;3902;49.474;8.616;2023-02-25T09:09:54;5.77;;;2.80;;
7719;SDS011;3902;49.474;8.616;2023-02-25T09:12:20;7.93;;;2.50;;
7719;SDS011;3902;49.474;8.616;2023-02-25T09:14:45;4.97;;;2.60;;
7719;SDS011;3902;49.474;8.616;2023-02-25T09:17:11;8.47;;;2.67;;
7719;SDS011;3902;49.474;8.616;2023-02-25T09:19:37;6.00;;;2.53;;
7719;SDS011;3902;49.474;8.616;2023-02-25T09:22:03;4.97;;;2.73;;
7719;SDS011;3902;49.474;8.616;2023-02-25T09:24:30;4.40;;;2.40;;
7719;SDS011;3902;49.474;8.616;2023-02-25T09:26:57;5.90;;;2.80;;
7719;SDS011;3902;49.474;8.616;2023-02-25T09:29:24;4.43;;;2.23;;
7719;SDS011;3902;49.474;8.616;2023-02-25T09:31:50;6.33;;;2.83;;
7719;SDS011;3902;49.474;8.616;2023-02-25T09:34:17;5.37;;;2.53;;
7719;SDS011;3902;49.474;8.616;2023-02-25T09:36:44;4.77;;;2.37;;
7719;SDS011;3902;49.474;8.616;2023-02-25T09:39:10;4.70;;;2.40;;
7719;SDS011;3902;49.474;8.616;2023-02-25T09:44:35;5.73;;;2.10;;
7719;SDS011;3902;49.474;8.616;2023-02-25T09:49:56;4.80;;;2.80;;
7719;SDS011;3902;49.474;8.616;2023-02-25T09:52:28;5.30;;;2.73;;
7719;SDS011;3902;49.474;8.616;2023-02-25T09:54:57;5.30;;;2.77;;
7719;SDS011;3902;49.474;8.616;2023-02-25T09:57:44;7.97;;;2.93;;
7719;SDS011;3902;49.474;8.616;2023-02-25T10:00:20;5.87;;;2.90;;
7719;SDS011;3902;49.474;8.616;2023-02-25T10:02:49;3.83;;;2.10;;
7719;SDS011;3902;49.474;8.616;2023-02-25T10:05:23;7.27;;;2.90;;
7719;SDS011;3902;49.474;8.616;2023-02-25T10:08:11;3.40;;;1.80;;
7719;SDS011;3902;49.474;8.616;2023-02-25T10:13:47;3.23;;;1.80;;
7719;SDS011;3902;49.474;8.616;2023-02-25T10:19:03;5.80;;;2.87;;
7719;SDS011;3902;49.474;8.616;2023-02-25T10:22:06;4.20;;;1.90;;
7719;SDS011;3902;49.474;8.616;2023-02-25T10:24:49;3.73;;;1.93;;
7719;SDS011;3902;49.474;8.616;2023-02-25T10:27:31;2.60;;;1.43;;
7719;SDS011;3902;49.474;8.616;2023-02-25T10:30:14;2.73;;;1.77;;
7719;SDS011;3902;49.474;8.616;2023-02-25T10:32:42;4.00;;;1.90;;
7719;SDS011;3902;49.474;8.616;2023-02-25T10:35:27;2.80;;;1.70;;
7719;SDS011;3902;49.474;8.616;2023-02-25T10:37:56;3.30;;;1.83;;
7719;SDS011;3902;49.474;8.616;2023-02-25T10:40:22;2.17;;;1.60;;
7719;SDS011;3902;49.474;8.616;2023-02-25T10:42:50;3.93;;;2.30;;
7719;SDS011;3902;49.474;8.616;2023-02-25T10:45:28;5.63;;;1.77;;
7719;SDS011;3902;49.474;8.616;2023-02-25T10:48:16;6.67;;;2.30;;
7719;SDS011;3902;49.474;8.616;2023-02-25T10:53:58;3.23;;;2.17;;
7719;SDS011;3902;49.474;8.616;2023-02-25T10:56:30;2.83;;;2.13;;
7719;SDS011;3902;49.474;8.616;2023-02-25T10:59:23;5.50;;;2.20;;
7719;SDS011;3902;49.474;8.616;2023-02-25T11:01:52;5.70;;;2.67;;
7719;SDS011;3902;49.474;8.616;2023-02-25T11:04:19;4.30;;;2.00;;
7719;SDS011;3902;49.474;8.616;2023-02-25T11:06:48;2.37;;;1.80;;
7719;SDS011;3902;49.474;8.616;2023-02-25T11:11:51;4.87;;;2.50;;
7719;SDS011;3902;49.474;8.616;2023-02-25T11:14:25;5.70;;;2.47;;
7719;SDS011;3902;49.474;8.616;2023-02-25T11:16:59;3.87;;;2.13;;
7719;SDS011;3902;49.474;8.616;2023-02-25T11:19:28;6.07;;;2.50;;
7719;SDS011;3902;49.474;8.616;2023-02-25T11:21:56;5.33;;;2.20;;
7719;SDS011;3902;49.474;8.616;2023-02-25T11:24:31;4.43;;;2.73;;
7719;SDS011;3902;49.474;8.616;2023-02-25T11:27:00;8.73;;;2.60;;
7719;SDS011;3902;49.474;8.616;2023-02-25T11:32:09;4.20;;;2.27;;
7719;SDS011;3902;49.474;8.616;2023-02-25T11:34:55;5.43;;;2.40;;
7719;SDS011;3902;49.474;8.616;2023-02-25T11:37:33;8.10;;;2.40;;
7719;SDS011;3902;49.474;8.616;2023-02-25T11:45:29;5.53;;;2.27;;
7719;SDS011;3902;49.474;8.616;2023-02-25T11:47:59;5.83;;;2.90;;
7719;SDS011;3902;49.474;8.616;2023-02-25T11:58:54;6.20;;;2.53;;
7719;SDS011;3902;49.474;8.616;2023-02-25T12:01:40;7.27;;;2.80;;
7719;SDS011;3902;49.474;8.616;2023-02-25T12:04:41;6.43;;;2.60;;
7719;SDS011;3902;49.474;8.616;2023-02-25T12:38:01;5.20;;;2.10;;
7719;SDS011;3902;49.474;8.616;2023-02-25T12:40:49;6.97;;;2.47;;
7719;SDS011;3902;49.474;8.616;2023-02-25T12:43:47;8.43;;;2.50;;
7719;SDS011;3902;49.474;8.616;2023-02-25T12:51:45;5.60;;;2.20;;
7719;SDS011;3902;49.474;8.616;2023-02-25T13:02:42;4.93;;;2.47;;
7719;SDS011;3902;49.474;8.616;2023-02-25T13:08:31;4.53;;;2.13;;
7719;SDS011;3902;49.474;8.616;2023-02-25T13:16:56;4.50;;;2.60;;
7719;SDS011;3902;49.474;8.616;2023-02-25T13:30:50;12.70;;;2.90;;
7719;SDS011;3902;49.474;8.616;2023-02-25T13:42:07;6.20;;;2.10;;
7719;SDS011;3902;49.474;8.616;2023-02-25T14:04:03;5.70;;;2.57;;
7719;SDS011;3902;49.474;8.616;2023-02-25T14:12:32;4.67;;;2.20;;
7719;SDS011;3902;49.474;8.616;2023-02-25T14:18:10;3.57;;;2.27;;
7719;SDS011;3902;49.474;8.616;2023-02-25T14:24:08;3.00;;;1.80;;
7719;SDS011;3902;49.474;8.616;2023-02-25T14:27:04;3.03;;;2.00;;
7719;SDS011;3902;49.474;8.616;2023-02-25T14:38:10;1.50;;;1.30;;
7719;SDS011;3902;49.474;8.616;2023-02-25T14:40:46;1.50;;;1.20;;
7719;SDS011;3902;49.474;8.616;2023-02-25T14:43:36;2.07;;;1.20;;
7719;SDS011;3902;49.474;8.616;2023-02-25T15:08:07;3.33;;;1.73;;
7719;SDS011;3902;49.474;8.616;2023-02-25T15:10:53;1.30;;;1.20;;
7719;SDS011;3902;49.474;8.616;2023-02-25T15:13:48;1.63;;;1.20;;
7719;SDS011;3902;49.474;8.616;2023-02-25T15:22:41;3.20;;;1.47;;
7719;SDS011;3902;49.474;8.616;2023-02-25T15:27:50;4.00;;;1.83;;
7719;SDS011;3902;49.474;8.616;2023-02-25T15:30:23;1.80;;;1.50;;
7719;SDS011;3902;49.474;8.616;2023-02-25T15:42:56;1.60;;;1.20;;
7719;SDS011;3902;49.474;8.616;2023-02-25T15:55:45;2.83;;;1.40;;
7719;SDS011;3902;49.474;8.616;2023-02-25T16:00:53;1.90;;;1.30;;
7719;SDS011;3902;49.474;8.616;2023-02-25T16:06:04;1.97;;;1.30;;
7719;SDS011;3902;49.474;8.616;2023-02-25T16:11:13;1.77;;;1.53;;
7719;SDS011;3902;49.474;8.616;2023-02-25T16:13:48;1.60;;;1.20;;
7719;SDS011;3902;49.474;8.616;2023-02-25T16:16:16;3.17;;;1.30;;
7719;SDS011;3902;49.474;8.616;2023-02-25T16:18:46;1.50;;;1.10;;
7719;SDS011;3902;49.474;8.616;2023-02-25T16:21:22;1.93;;;1.33;;
7719;SDS011;3902;49.474;8.616;2023-02-25T16:23:50;3.93;;;1.30;;
7719;SDS011;3902;49.474;8.616;2023-02-25T16:37:59;1.50;;;1.10;;
7719;SDS011;3902;49.474;8.616;2023-02-25T16:40:36;2.77;;;1.77;;
7719;SDS011;3902;49.474;8.616;2023-02-25T16:43:03;2.00;;;1.40;;
7719;SDS011;3902;49.474;8.616;2023-02-25T16:45:39;3.27;;;1.57;;
7719;SDS011;3902;49.474;8.616;2023-02-25T16:48:14;2.27;;;1.60;;
7719;SDS011;3902;49.474;8.616;2023-02-25T16:50:46;2.27;;;1.50;;
7719;SDS011;3902;49.474;8.616;2023-02-25T16:53:17;2.03;;;1.13;;
7719;SDS011;3902;49.474;8.616;2023-02-25T16:55:44;3.43;;;1.70;;
7719;SDS011;3902;49.474;8.616;2023-02-25T17:00:48;2.40;;;1.40;;
7719;SDS011;3902;49.474;8.616;2023-02-25T17:03:15;2.00;;;1.47;;
7719;SDS011;3902;49.474;8.616;2023-02-25T17:05:42;2.83;;;1.47;;
7719;SDS011;3902;49.474;8.616;2023-02-25T17:08:15;2.67;;;1.60;;
7719;SDS011;3902;49.474;8.616;2023-02-25T17:10:42;2.93;;;2.50;;
7719;SDS011;3902;49.474;8.616;2023-02-25T17:18:58;2.70;;;1.60;;
7719;SDS011;3902;49.474;8.616;2023-02-25T17:21:40;2.40;;;1.80;;
7719;SDS011;3902;49.474;8.616;2023-02-25T17:24:11;3.30;;;1.90;;
7719;SDS011;3902;49.474;8.616;2023-02-25T17:26:44;3.00;;;1.67;;
7719;SDS011;3902;49.474;8.616;2023-02-25T17:29:13;2.17;;;1.70;;
7719;SDS011;3902;49.474;8.616;2023-02-25T17:31:44;2.87;;;2.03;;
7719;SDS011;3902;49.474;8.616;2023-02-25T17:34:13;3.07;;;1.77;;
7719;SDS011;3902;49.474;8.616;2023-02-25T17:36:41;1.87;;;1.60;;
7719;SDS011;3902;49.474;8.616;2023-02-25T17:39:14;2.77;;;1.97;;
7719;SDS011;3902;49.474;8.616;2023-02-25T17:41:43;3.93;;;2.43;;
7719;SDS011;3902;49.474;8.616;2023-02-25T17:44:41;3.13;;;2.00;;
7719;SDS011;3902;49.474;8.616;2023-02-25T17:47:08;2.97;;;2.10;;
7719;SDS011;3902;49.474;8.616;2023-02-25T17:49:36;3.37;;;2.93;;
7719;SDS011;3902;49.474;8.616;2023-02-25T17:52:06;4.07;;;2.70;;
7719;SDS011;3902;49.474;8.616;2023-02-25T17:54:44;8.57;;;2.27;;
7719;SDS011;3902;49.474;8.616;2023-02-25T17:57:15;3.37;;;2.20;;
7719;SDS011;3902;49.474;8.616;2023-02-25T17:59:48;2.20;;;2.00;;
7719;SDS011;3902;49.474;8.616;2023-02-25T18:02:30;3.30;;;2.10;;
7719;SDS011;3902;49.474;8.616;2023-02-25T18:07:36;3.27;;;2.20;;
7719;SDS011;3902;49.474;8.616;2023-02-25T18:10:04;3.70;;;2.37;;
7719;SDS011;3902;49.474;8.616;2023-02-25T18:12:48;2.53;;;2.00;;
7719;SDS011;3902;49.474;8.616;2023-02-25T18:15:19;3.20;;;2.80;;
7719;SDS011;3902;49.474;8.616;2023-02-25T18:17:54;3.97;;;2.00;;
7719;SDS011;3902;49.474;8.616;2023-02-25T18:20:40;3.90;;;2.50;;
7719;SDS011;3902;49.474;8.616;2023-02-25T18:23:07;2.30;;;2.10;;
7719;SDS011;3902;49.474;8.616;2023-02-25T18:25:46;5.53;;;2.57;;
7719;SDS011;3902;49.474;8.616;2023-02-25T18:28:17;5.60;;;2.70;;
7719;SDS011;3902;49.474;8.616;2023-02-25T18:30:45;2.83;;;2.13;;
7719;SDS011;3902;49.474;8.616;2023-02-25T18:33:13;3.60;;;2.60;;
7719;SDS011;3902;49.474;8.616;2023-02-25T18:35:39;3.80;;;2.70;;
7719;SDS011;3902;49.474;8.616;2023-02-25T18:38:10;3.30;;;2.50;;
7719;SDS011;3902;49.474;8.616;2023-02-25T18:40:41;4.70;;;2.60;;
7719;SDS011;3902;49.474;8.616;2023-02-25T18:43:08;4.40;;;2.50;;
7719;SDS011;3902;49.474;8.616;2023-02-25T18:45:41;3.43;;;1.70;;
7719;SDS011;3902;49.474;8.616;2023-02-25T18:48:06;3.63;;;2.40;;
7719;SDS011;3902;49.474;8.616;2023-02-25T18:50:32;3.33;;;2.63;;
7719;SDS011;3902;49.474;8.616;2023-02-25T18:52:58;2.87;;;2.20;;
7719;SDS011;3902;49.474;8.616;2023-02-25T18:55:25;5.80;;;2.30;;
7719;SDS011;3902;49.474;8.616;2023-02-25T18:57:52;2.77;;;2.23;;
7719;SDS011;3902;49.474;8.616;2023-02-25T19:00:19;4.73;;;2.27;;
7719;SDS011;3902;49.474;8.616;2023-02-25T19:02:50;3.43;;;2.20;;
7719;SDS011;3902;49.474;8.616;2023-02-25T19:05:19;3.00;;;2.30;;
7719;SDS011;3902;49.474;8.616;2023-02-25T19:07:45;2.73;;;2.33;;
7719;SDS011;3902;49.474;8.616;2023-02-25T19:10:15;3.40;;;2.17;;
7719;SDS011;3902;49.474;8.616;2023-02-25T19:12:43;3.30;;;1.90;;
7719;SDS011;3902;49.474;8.616;2023-02-25T19:15:12;2.93;;;1.90;;
7719;SDS011;3902;49.474;8.616;2023-02-25T19:17:39;3.20;;;2.10;;
7719;SDS011;3902;49.474;8.616;2023-02-25T19:20:05;4.27;;;1.97;;
7719;SDS011;3902;49.474;8.616;2023-02-25T19:22:32;4.00;;;1.97;;
7719;SDS011;3902;49.474;8.616;2023-02-25T19:24:57;3.50;;;2.00;;
7719;SDS011;3902;49.474;8.616;2023-02-25T19:27:26;2.70;;;1.70;;
7719;SDS011;3902;49.474;8.616;2023-02-25T19:29:55;2.07;;;1.70;;
7719;SDS011;3902;49.474;8.616;2023-02-25T19:32:23;2.07;;;1.60;;
7719;SDS011;3902;49.474;8.616;2023-02-25T19:34:51;3.37;;;2.00;;
7719;SDS011;3902;49.474;8.616;2023-02-25T19:37:17;2.37;;;1.63;;
7719;SDS011;3902;49.474;8.616;2023-02-25T19:39:44;3.43;;;1.63;;
7719;SDS011;3902;49.474;8.616;2023-02-25T19:42:11;3.23;;;1.90;;